Time;durP1;ratioP1;P1;durP2;ratioP2;P2;SDS_P1;SDS_P2;PMS_P1;PMS_P2;Temp;Humidity;BMP_temperature;BMP_pressure;BME280_temperature;BME280_humidity;BME280_pressure;Samples;Min_cycle;Max_cycle;Signal;HPM_P1;HPM_P2
2022/09/02 00:00:43;;;;;;;1.70;1.60;;;18.60;57.90;;;;;;5050398;28;20049;-66
2022/09/02 00:03:10;;;;;;;1.50;1.40;;;18.60;57.80;;;;;;5050964;28;20029;-65
2022/09/02 00:05:36;;;;;;;1.50;1.40;;;18.60;57.90;;;;;;5050218;28;20039;-64
2022/09/02 00:08:03;;;;;;;1.70;1.17;;;18.60;57.80;;;;;;5048426;28;20150;-64
2022/09/02 00:10:29;;;;;;;1.58;1.48;;;18.60;58.00;;;;;;5046817;28;20056;-65
2022/09/02 00:12:55;;;;;;;1.50;1.38;;;18.60;57.80;;;;;;5052099;28;20098;-66
2022/09/02 00:15:21;;;;;;;1.65;1.40;;;18.60;57.80;;;;;;5032178;28;20033;-64
2022/09/02 00:17:47;;;;;;;2.00;1.40;;;18.60;57.70;;;;;;5050558;28;20052;-64
2022/09/02 00:20:13;;;;;;;1.60;1.50;;;18.60;58.00;;;;;;5051181;28;20017;-65
2022/09/02 00:22:39;;;;;;;1.55;1.45;;;18.60;58.00;;;;;;5042419;28;20025;-65
2022/09/02 00:25:05;;;;;;;1.38;1.27;;;18.60;57.80;;;;;;5047393;28;20037;-64
2022/09/02 00:27:31;;;;;;;1.75;1.63;;;18.50;57.80;;;;;;5051930;28;20028;-65
2022/09/02 00:29:56;;;;;;;2.78;1.70;;;18.60;57.90;;;;;;5045829;28;20578;-64
2022/09/02 00:32:22;;;;;;;1.15;1.13;;;18.50;57.80;;;;;;5050878;28;20426;-64
2022/09/02 00:34:47;;;;;;;1.40;1.30;;;18.50;57.80;;;;;;5029235;28;20445;-64
2022/09/02 00:37:13;;;;;;;1.77;1.48;;;18.50;57.80;;;;;;5050518;28;20083;-64
2022/09/02 00:39:39;;;;;;;1.40;1.30;;;18.50;57.80;;;;;;5051257;28;20087;-65
2022/09/02 00:42:06;;;;;;;1.63;1.48;;;18.50;57.80;;;;;;5051492;28;20384;-65
2022/09/02 00:44:32;;;;;;;2.78;1.70;;;18.50;57.70;;;;;;5049094;28;20495;-65
2022/09/02 00:46:58;;;;;;;1.10;1.00;;;18.50;57.60;;;;;;5050076;28;20037;-65
2022/09/02 00:49:27;;;;;;;1.60;1.27;;;18.50;57.60;;;;;;5046079;28;20056;-66
2022/09/02 00:52:11;;;;;;;1.50;1.40;;;18.50;57.70;;;;;;5050652;28;20488;-65
2022/09/02 00:54:55;;;;;;;1.55;1.45;;;18.50;57.70;;;;;;5049889;28;20032;-65
2022/09/02 00:57:26;;;;;;;1.38;1.27;;;18.50;57.70;;;;;;5046888;28;20021;-64
2022/09/02 01:00:16;;;;;;;1.13;1.02;;;18.50;57.70;;;;;;5042674;28;20028;-64
2022/09/02 01:02:43;;;;;;;1.20;1.20;;;18.50;57.80;;;;;;5044426;28;20025;-64
2022/09/02 01:05:11;;;;;;;1.48;1.38;;;18.50;57.80;;;;;;5045879;28;20029;-64
2022/09/02 01:07:38;;;;;;;1.65;1.45;;;18.50;57.70;;;;;;5053030;28;20043;-64
2022/09/02 01:10:08;;;;;;;1.35;1.25;;;18.50;57.80;;;;;;5049297;28;20037;-65
2022/09/02 01:12:34;;;;;;;1.70;1.60;;;18.50;57.80;;;;;;5048768;28;20033;-65
2022/09/02 01:15:00;;;;;;;1.75;1.48;;;18.50;57.90;;;;;;5032022;28;20495;-66
2022/09/02 01:17:26;;;;;;;2.40;1.80;;;18.50;57.90;;;;;;5049189;28;20025;-64
2022/09/02 01:20:00;;;;;;;2.00;1.63;;;18.50;58.30;;;;;;5043556;28;20036;-64
2022/09/02 01:22:29;;;;;;;2.28;1.65;;;18.50;58.50;;;;;;5049785;28;20071;-64
2022/09/02 01:25:05;;;;;;;1.63;1.52;;;18.40;58.80;;;;;;5046419;28;20071;-65
2022/09/02 01:27:31;;;;;;;1.67;1.58;;;18.40;58.80;;;;;;5050724;28;20064;-65
2022/09/02 01:29:59;;;;;;;1.92;1.73;;;18.40;59.00;;;;;;5046638;28;20045;-65
2022/09/02 01:32:26;;;;;;;2.38;2.00;;;18.40;59.20;;;;;;5050776;28;20033;-61
2022/09/02 01:34:52;;;;;;;1.88;1.77;;;18.30;59.40;;;;;;5049825;28;20112;-65
2022/09/02 01:37:18;;;;;;;1.60;1.50;;;18.30;59.60;;;;;;5050663;28;20137;-65
2022/09/02 01:39:45;;;;;;;1.60;1.48;;;18.20;59.70;;;;;;5052125;28;20416;-65
2022/09/02 01:42:11;;;;;;;3.13;2.30;;;18.20;59.90;;;;;;5036504;28;20385;-64
2022/09/02 01:44:42;;;;;;;2.85;1.95;;;18.20;60.00;;;;;;5049305;28;20049;-64
2022/09/02 01:47:16;;;;;;;;;;;18.10;60.10;;;;;;5051084;28;20090;-65
2022/09/02 01:49:42;;;;;;;1.95;1.58;;;18.10;60.50;;;;;;5035780;28;19915;-65
2022/09/02 01:52:08;;;;;;;2.05;1.85;;;18.00;60.20;;;;;;5053887;28;20405;-64
2022/09/02 01:54:34;;;;;;;1.70;1.60;;;18.00;60.40;;;;;;5034009;28;20453;-63
2022/09/02 01:57:00;;;;;;;1.95;1.70;;;17.90;60.70;;;;;;5035859;28;20036;-65
2022/09/02 01:59:26;;;;;;;2.95;2.30;;;17.90;61.00;;;;;;5052345;28;20029;-66
2022/09/02 02:01:51;;;;;;;1.83;1.73;;;17.90;61.30;;;;;;5049134;28;20055;-64
2022/09/02 02:04:17;;;;;;;2.47;2.22;;;17.80;61.50;;;;;;5052071;28;20484;-67
2022/09/02 02:06:47;;;;;;;2.08;1.88;;;17.80;61.70;;;;;;5053271;28;20343;-67
2022/09/02 02:09:15;;;;;;;3.15;2.20;;;17.80;61.90;;;;;;5047382;28;20029;-67
2022/09/02 02:11:41;;;;;;;2.13;1.92;;;17.70;62.10;;;;;;5051833;28;20025;-67
2022/09/02 02:14:07;;;;;;;2.20;2.00;;;17.70;62.30;;;;;;5051722;28;20036;-68
2022/09/02 02:16:32;;;;;;;2.30;2.10;;;17.70;62.50;;;;;;5051362;28;20458;-66
2022/09/02 02:18:58;;;;;;;2.38;2.03;;;17.70;62.60;;;;;;5053078;28;20021;-66
2022/09/02 02:21:24;;;;;;;2.33;1.90;;;17.70;62.80;;;;;;5056810;28;20051;-64
2022/09/02 02:23:50;;;;;;;2.40;1.95;;;17.60;62.90;;;;;;5052986;28;20369;-67
2022/09/02 02:26:16;;;;;;;2.78;2.20;;;17.60;62.90;;;;;;5033574;28;20024;-66
2022/09/02 02:28:42;;;;;;;2.15;1.80;;;17.60;63.10;;;;;;5052510;28;20389;-67
2022/09/02 02:31:08;;;;;;;3.25;2.17;;;17.60;63.20;;;;;;5036202;28;20028;-66
2022/09/02 02:33:34;;;;;;;2.33;2.03;;;17.60;63.40;;;;;;5053574;28;20496;-67
2022/09/02 02:36:03;;;;;;;2.20;2.00;;;17.60;63.50;;;;;;5052794;28;20029;-65
2022/09/02 02:38:30;;;;;;;3.00;2.15;;;17.50;63.70;;;;;;5053400;28;20128;-67
2022/09/02 02:40:56;;;;;;;2.58;2.05;;;17.50;63.70;;;;;;5052520;28;20020;-67
2022/09/02 02:43:25;;;;;;;2.92;2.17;;;17.50;63.80;;;;;;5050385;28;20045;-67
2022/09/02 02:45:52;;;;;;;2.20;2.05;;;17.50;63.90;;;;;;5049042;28;20156;-68
2022/09/02 02:48:18;;;;;;;2.10;1.90;;;17.50;63.90;;;;;;5052876;28;20083;-66
2022/09/02 02:50:44;;;;;;;3.17;2.33;;;17.50;64.00;;;;;;5050240;28;20473;-67
2022/09/02 02:53:11;;;;;;;2.35;2.05;;;17.50;64.10;;;;;;5052941;28;20056;-66
2022/09/02 02:55:38;;;;;;;2.25;1.95;;;17.40;64.00;;;;;;5033179;28;20040;-68
2022/09/02 02:58:04;;;;;;;2.17;1.98;;;17.40;64.00;;;;;;5048354;28;20033;-66
2022/09/02 03:00:32;;;;;;;3.20;2.55;;;17.50;64.20;;;;;;5051603;28;20071;-66
2022/09/02 03:03:06;;;;;;;3.25;2.65;;;17.40;64.00;;;;;;5053126;28;20527;-66
2022/09/02 03:05:34;;;;;;;2.78;2.20;;;17.40;64.00;;;;;;5050856;28;20025;-68
2022/09/02 03:08:01;;;;;;;3.17;2.33;;;17.30;64.10;;;;;;5052346;28;20029;-67
2022/09/02 03:10:28;;;;;;;2.95;2.33;;;17.30;64.20;;;;;;5051411;28;20029;-67
2022/09/02 03:12:54;;;;;;;2.35;2.15;;;17.30;64.30;;;;;;5030821;28;20036;-67
2022/09/02 03:15:19;;;;;;;3.47;2.60;;;17.30;64.30;;;;;;5050526;28;20020;-66
2022/09/02 03:17:48;;;;;;;2.80;2.50;;;17.30;64.30;;;;;;5050974;28;20025;-67
2022/09/02 03:20:16;;;;;;;2.58;2.05;;;17.30;64.50;;;;;;5052014;28;20037;-68
2022/09/02 03:22:43;;;;;;;2.92;2.15;;;17.30;64.40;;;;;;5049001;28;20184;-66
2022/09/02 03:25:11;;;;;;;2.42;1.88;;;17.20;64.40;;;;;;5051312;28;20396;-67
2022/09/02 03:27:38;;;;;;;2.40;2.20;;;17.20;64.40;;;;;;5052475;28;20385;-67
2022/09/02 03:30:06;;;;;;;3.35;2.13;;;17.20;64.40;;;;;;5054450;28;20032;-67
2022/09/02 03:32:32;;;;;;;3.78;2.70;;;17.20;64.50;;;;;;5050837;28;20113;-66
2022/09/02 03:34:57;;;;;;;3.30;2.75;;;17.20;64.60;;;;;;5048481;28;20653;-68
2022/09/02 03:37:23;;;;;;;3.08;2.25;;;17.10;64.80;;;;;;5051021;28;20064;-66
2022/09/02 03:39:49;;;;;;;3.10;2.58;;;17.10;65.00;;;;;;5050438;28;20021;-66
2022/09/02 03:42:14;;;;;;;3.00;2.30;;;17.10;65.00;;;;;;5050009;28;20036;-67
2022/09/02 03:44:40;;;;;;;3.03;2.42;;;17.10;65.10;;;;;;5049954;28;20021;-66
2022/09/02 03:47:06;;;;;;;3.38;2.63;;;17.10;65.20;;;;;;5039592;28;20025;-64
2022/09/02 03:49:32;;;;;;;3.15;2.40;;;17.10;65.40;;;;;;5050098;28;20021;-66
2022/09/02 03:51:59;;;;;;;3.58;2.55;;;17.10;65.50;;;;;;5049973;28;20039;-67
2022/09/02 03:54:24;;;;;;;3.30;2.50;;;17.10;65.60;;;;;;5051029;28;20088;-68
2022/09/02 03:56:50;;;;;;;4.13;2.80;;;17.20;65.70;;;;;;5033105;28;20035;-67
2022/09/02 03:59:16;;;;;;;2.40;2.20;;;17.20;65.70;;;;;;5048632;28;20048;-67
2022/09/02 04:01:42;;;;;;;3.85;2.35;;;17.20;65.80;;;;;;5050200;28;20377;-67
2022/09/02 04:04:08;;;;;;;2.58;2.25;;;17.30;65.90;;;;;;5050710;28;20516;-67
2022/09/02 04:06:34;;;;;;;2.92;2.50;;;17.40;66.00;;;;;;5033176;28;20443;-63
2022/09/02 04:09:00;;;;;;;3.75;2.83;;;17.40;66.00;;;;;;5051135;28;20028;-67
2022/09/02 04:11:25;;;;;;;3.75;2.50;;;17.40;66.10;;;;;;5048386;28;20311;-67
2022/09/02 04:13:52;;;;;;;4.47;2.40;;;17.50;66.00;;;;;;5049434;28;20038;-65
2022/09/02 04:16:27;;;;;;;2.95;2.47;;;17.50;65.90;;;;;;5032818;28;20025;-67
2022/09/02 04:18:57;;;;;;;2.67;2.10;;;17.50;65.80;;;;;;5045900;28;20036;-68
2022/09/02 04:21:24;;;;;;;4.18;2.22;;;17.50;65.90;;;;;;5048998;28;20025;-67
2022/09/02 04:23:51;;;;;;;2.85;2.38;;;17.60;66.00;;;;;;5048737;28;20017;-59
2022/09/02 04:26:18;;;;;;;3.30;2.60;;;17.60;66.10;;;;;;5051683;28;20053;-67
2022/09/02 04:28:44;;;;;;;2.65;2.13;;;17.60;66.00;;;;;;5032076;28;20464;-67
2022/09/02 04:31:13;;;;;;;2.97;2.40;;;17.60;66.10;;;;;;5051030;28;20036;-66
2022/09/02 04:33:39;;;;;;;3.38;2.47;;;17.70;66.00;;;;;;5050534;28;20109;-66
2022/09/02 04:36:07;;;;;;;2.40;2.20;;;17.70;65.80;;;;;;5048615;28;20021;-67
2022/09/02 04:38:33;;;;;;;3.58;2.20;;;17.80;65.70;;;;;;5051609;28;20481;-68
2022/09/02 04:40:59;;;;;;;2.35;2.05;;;17.80;65.50;;;;;;5044173;28;20370;-68
2022/09/02 04:43:25;;;;;;;2.15;1.95;;;17.90;65.20;;;;;;5045922;28;20029;-68
2022/09/02 04:45:51;;;;;;;1.80;1.70;;;17.90;65.00;;;;;;5054314;28;20028;-66
2022/09/02 04:48:17;;;;;;;2.35;2.15;;;18.00;64.80;;;;;;5046212;28;20052;-66
2022/09/02 04:50:44;;;;;;;3.17;2.45;;;18.00;64.80;;;;;;5048461;28;20025;-62
2022/09/02 04:53:10;;;;;;;2.55;2.25;;;18.10;64.90;;;;;;5049886;28;20020;-66
2022/09/02 04:55:41;;;;;;;4.30;2.63;;;18.30;65.00;;;;;;5048068;28;20136;-65
2022/09/02 04:58:08;;;;;;;4.25;2.65;;;18.50;64.90;;;;;;5046706;28;20025;-66
2022/09/02 05:00:36;;;;;;;3.50;2.72;;;18.70;64.90;;;;;;5047147;28;20036;-65
2022/09/02 05:03:03;;;;;;;2.95;2.53;;;19.00;64.70;;;;;;5050911;28;20540;-69
2022/09/02 05:05:29;;;;;;;3.55;2.63;;;19.30;64.50;;;;;;5048898;28;20032;-66
2022/09/02 05:07:55;;;;;;;3.22;2.60;;;19.60;63.90;;;;;;5049990;28;20033;-64
2022/09/02 05:10:21;;;;;;;4.38;3.05;;;19.80;63.40;;;;;;5051623;28;20047;-67
2022/09/02 05:12:47;;;;;;;4.20;2.97;;;19.80;63.90;;;;;;5053984;28;20092;-68
2022/09/02 05:15:12;;;;;;;3.72;2.50;;;19.80;63.00;;;;;;5053084;28;20032;-69
2022/09/02 05:17:38;;;;;;;2.65;2.10;;;19.80;62.70;;;;;;5053106;28;20025;-68
2022/09/02 05:20:05;;;;;;;2.20;1.90;;;19.90;62.70;;;;;;5053736;28;20029;-64
2022/09/02 05:22:32;;;;;;;2.10;1.73;;;20.00;62.40;;;;;;5052610;28;20110;-66
2022/09/02 05:24:58;;;;;;;2.25;1.98;;;20.10;62.30;;;;;;5052311;28;20119;-68
2022/09/02 05:27:24;;;;;;;1.95;1.50;;;20.20;61.80;;;;;;5057153;28;20112;-68
2022/09/02 05:29:54;;;;;;;1.80;1.63;;;20.20;61.60;;;;;;5051185;28;20017;-68
2022/09/02 05:32:21;;;;;;;1.52;1.42;;;20.30;61.40;;;;;;5051935;28;20116;-68
2022/09/02 05:34:47;;;;;;;1.95;1.70;;;20.20;61.00;;;;;;5049246;28;20017;-68
2022/09/02 05:37:13;;;;;;;1.92;1.73;;;20.20;61.10;;;;;;5051326;28;20043;-64
2022/09/02 05:39:39;;;;;;;2.20;2.00;;;20.20;61.20;;;;;;5049532;28;20025;-68
2022/09/02 05:42:04;;;;;;;1.83;1.63;;;20.30;61.30;;;;;;5049048;28;20444;-63
2022/09/02 05:44:30;;;;;;;1.92;1.77;;;20.50;60.80;;;;;;5048009;28;20035;-67
2022/09/02 05:46:56;;;;;;;1.88;1.77;;;21.00;60.00;;;;;;5048607;28;20111;-67
2022/09/02 05:49:22;;;;;;;2.17;1.92;;;21.40;58.90;;;;;;5047578;28;20083;-68
2022/09/02 05:51:53;;;;;;;2.63;1.63;;;21.70;58.00;;;;;;5048370;28;20035;-67
2022/09/02 05:54:27;;;;;;;2.47;1.80;;;21.80;57.70;;;;;;5049876;28;20128;-68
2022/09/02 05:56:55;;;;;;;2.33;1.77;;;21.70;57.50;;;;;;5047611;28;20537;-70
2022/09/02 05:59:23;;;;;;;1.40;1.30;;;21.60;57.60;;;;;;5049669;28;20080;-64
2022/09/02 06:01:49;;;;;;;1.88;1.73;;;21.40;57.80;;;;;;5048797;28;20039;-67
2022/09/02 06:04:15;;;;;;;2.17;1.98;;;21.30;58.10;;;;;;5045616;28;20041;-62
2022/09/02 06:06:41;;;;;;;1.55;1.45;;;21.20;58.20;;;;;;5042890;28;20037;-68
2022/09/02 06:09:09;;;;;;;1.95;1.80;;;21.10;58.40;;;;;;5045038;28;20048;-64
2022/09/02 06:11:43;;;;;;;2.72;1.63;;;20.90;58.30;;;;;;5041310;28;20029;-68
2022/09/02 06:14:10;;;;;;;2.05;1.85;;;20.90;58.40;;;;;;5033755;28;20039;-60
2022/09/02 06:16:37;;;;;;;2.08;1.88;;;20.80;58.60;;;;;;5021628;28;20071;-64
2022/09/02 06:19:04;;;;;;;2.35;1.92;;;20.80;58.70;;;;;;5037655;28;20029;-69
2022/09/02 06:21:30;;;;;;;1.95;1.27;;;20.80;58.70;;;;;;5037623;28;20511;-60
2022/09/02 06:23:56;;;;;;;1.80;1.70;;;20.80;58.60;;;;;;5045037;28;20106;-64
2022/09/02 06:26:21;;;;;;;1.83;1.73;;;20.70;58.60;;;;;;5037987;28;20103;-62
2022/09/02 06:28:47;;;;;;;3.22;1.92;;;20.70;58.60;;;;;;5039347;28;20025;-64
2022/09/02 06:31:19;;;;;;;1.55;1.45;;;20.70;58.60;;;;;;5034915;28;20518;-62
2022/09/02 06:33:46;;;;;;;1.58;1.35;;;20.70;58.50;;;;;;5040429;28;20095;-61
2022/09/02 06:36:14;;;;;;;2.05;1.45;;;20.70;58.30;;;;;;5040464;28;20041;-63
2022/09/02 06:38:43;;;;;;;1.50;1.40;;;20.80;58.20;;;;;;5039963;28;20731;-62
2022/09/02 06:41:15;;;;;;;1.95;1.38;;;20.80;58.20;;;;;;5038214;28;20029;-63
2022/09/02 06:43:41;;;;;;;1.40;1.30;;;20.80;58.30;;;;;;5033262;28;20056;-61
2022/09/02 06:46:07;;;;;;;3.28;2.13;;;20.80;58.10;;;;;;5030561;28;20441;-61
2022/09/02 06:48:33;;;;;;;1.92;1.55;;;20.80;57.90;;;;;;5035869;28;20025;-67
2022/09/02 06:51:00;;;;;;;1.80;1.60;;;20.80;57.70;;;;;;5035881;28;20029;-67
2022/09/02 06:53:26;;;;;;;1.35;1.17;;;20.90;57.70;;;;;;5026873;28;20163;-66
2022/09/02 06:55:51;;;;;;;1.13;1.10;;;20.90;57.60;;;;;;5036294;28;20033;-62
2022/09/02 06:58:17;;;;;;;1.17;1.00;;;20.90;57.10;;;;;;5031267;28;20030;-61
2022/09/02 07:00:43;;;;;;;1.40;1.13;;;21.00;57.00;;;;;;5031649;28;20029;-63
2022/09/02 07:06:08;;;;;;;1.02;1.02;;;21.00;56.50;;;;;;5029878;28;20444;-66
2022/09/02 07:08:36;;;;;;;1.43;1.33;;;21.00;56.20;;;;;;5028722;28;20030;-67
2022/09/02 07:11:02;;;;;;;0.90;0.90;;;21.00;56.10;;;;;;5029730;28;20074;-65
2022/09/02 07:13:28;;;;;;;0.85;0.85;;;21.00;56.00;;;;;;5032437;28;20048;-65
2022/09/02 07:15:53;;;;;;;0.95;0.90;;;21.00;56.00;;;;;;5034010;28;20036;-65
2022/09/02 07:18:19;;;;;;;1.70;0.93;;;21.10;55.90;;;;;;5033457;28;20728;-61
2022/09/02 07:20:46;;;;;;;1.35;1.25;;;21.10;55.70;;;;;;5033946;28;20029;-64
2022/09/02 07:23:14;;;;;;;0.90;0.90;;;21.20;55.60;;;;;;5032796;28;20037;-64
2022/09/02 07:25:40;;;;;;;0.98;0.98;;;21.20;55.50;;;;;;5030366;28;20032;-64
2022/09/02 07:28:07;;;;;;;0.85;0.85;;;21.30;55.30;;;;;;5031877;28;20033;-64
2022/09/02 07:30:33;;;;;;;1.40;1.27;;;21.30;55.20;;;;;;5016929;28;20069;-63
2022/09/02 07:33:00;;;;;;;0.98;0.90;;;21.30;55.10;;;;;;5017190;28;20037;-67
2022/09/02 07:35:26;;;;;;;1.15;0.98;;;21.40;55.00;;;;;;5022794;28;20041;-62
2022/09/02 07:37:51;;;;;;;1.00;0.90;;;21.40;54.90;;;;;;5027001;28;20028;-62
2022/09/02 07:40:17;;;;;;;0.63;0.63;;;21.40;54.90;;;;;;5024703;28;20524;-60
2022/09/02 07:42:43;;;;;;;2.80;0.98;;;21.40;54.80;;;;;;5034309;28;20438;-64
2022/09/02 07:45:10;;;;;;;1.33;0.90;;;21.30;54.70;;;;;;5035971;28;20524;-66
2022/09/02 07:47:36;;;;;;;1.42;1.10;;;21.30;54.70;;;;;;4998110;28;20037;-66
2022/09/02 07:50:02;;;;;;;1.20;1.10;;;21.30;54.60;;;;;;5021128;28;20033;-65
2022/09/02 07:52:28;;;;;;;1.00;0.90;;;21.30;54.50;;;;;;5010825;28;20029;-60
2022/09/02 07:54:54;;;;;;;0.85;0.85;;;21.30;54.30;;;;;;5019426;28;20041;-64
2022/09/02 07:57:20;;;;;;;1.63;1.35;;;21.30;54.20;;;;;;5023685;28;20485;-65
2022/09/02 07:59:46;;;;;;;1.10;1.00;;;21.20;54.20;;;;;;5021195;28;20036;-60
2022/09/02 08:02:13;;;;;;;1.30;1.20;;;21.20;54.20;;;;;;4996463;28;20033;-62
2022/09/02 08:04:39;;;;;;;1.73;1.20;;;21.20;54.30;;;;;;5003579;28;20156;-65
2022/09/02 08:07:05;;;;;;;1.48;1.27;;;21.20;54.20;;;;;;5024982;28;20040;-62
2022/09/02 08:09:30;;;;;;;1.30;1.20;;;21.20;54.20;;;;;;5021575;28;20448;-60
2022/09/02 08:11:56;;;;;;;4.10;1.50;;;21.10;54.00;;;;;;5012673;28;20028;-64
2022/09/02 08:14:26;;;;;;;1.73;1.45;;;21.00;54.20;;;;;;5017224;28;20887;-60
2022/09/02 08:16:53;;;;;;;0.95;0.95;;;21.00;54.20;;;;;;5024722;28;20120;-60
2022/09/02 08:19:21;;;;;;;1.42;1.17;;;21.00;54.20;;;;;;5015896;28;20043;-64
2022/09/02 08:21:47;;;;;;;1.02;0.93;;;21.00;54.20;;;;;;5019294;28;20033;-63
2022/09/02 08:24:13;;;;;;;0.85;0.85;;;21.00;54.20;;;;;;5024175;28;20508;-63
2022/09/02 08:26:39;;;;;;;0.98;0.98;;;20.90;54.10;;;;;;5023006;28;20033;-67
2022/09/02 08:29:06;;;;;;;1.42;1.08;;;20.90;54.20;;;;;;5014074;28;20174;-63
2022/09/02 08:31:32;;;;;;;1.27;1.17;;;20.90;54.80;;;;;;5018480;28;20033;-62
2022/09/02 08:33:59;;;;;;;2.35;1.20;;;20.90;54.10;;;;;;5007126;28;20152;-61
2022/09/02 08:36:25;;;;;;;1.40;1.30;;;20.80;53.90;;;;;;5007728;28;20022;-61
2022/09/02 08:38:51;;;;;;;0.90;0.90;;;20.80;53.90;;;;;;5021113;28;20130;-60
2022/09/02 08:41:24;;;;;;;1.05;1.02;;;20.80;53.90;;;;;;5018031;28;20032;-60
2022/09/02 08:43:57;;;;;;;1.42;1.33;;;20.80;53.90;;;;;;5024245;28;20170;-63
2022/09/02 08:46:26;;;;;;;1.00;0.70;;;20.80;53.60;;;;;;5015822;28;20116;-64
2022/09/02 08:48:59;;;;;;;0.90;0.90;;;20.80;53.50;;;;;;5029078;28;20029;-64
2022/09/02 08:51:30;;;;;;;1.05;0.90;;;20.80;53.30;;;;;;5017588;28;20759;-64
2022/09/02 08:53:59;;;;;;;1.00;1.00;;;20.70;53.30;;;;;;5018840;28;20137;-65
2022/09/02 08:56:28;;;;;;;1.30;1.20;;;20.70;53.30;;;;;;5004557;28;20056;-63
2022/09/02 08:58:56;;;;;;;0.75;0.73;;;20.70;53.40;;;;;;5025239;28;20033;-60
2022/09/02 09:01:25;;;;;;;1.42;1.20;;;20.70;53.40;;;;;;5016545;28;20033;-62
2022/09/02 09:03:51;;;;;;;0.90;0.90;;;20.70;53.20;;;;;;5024256;28;20104;-59
2022/09/02 09:06:52;;;;;;;0.77;0.77;;;20.70;53.00;;;;;;5025630;28;20576;-64
2022/09/02 09:09:36;;;;;;;0.98;0.98;;;20.70;52.80;;;;;;5020869;28;20048;-62
2022/09/02 09:12:16;;;;;;;1.10;1.08;;;20.70;52.80;;;;;;5013019;28;20033;-60
2022/09/02 09:14:56;;;;;;;0.82;0.80;;;20.60;52.50;;;;;;5027670;28;20128;-62
2022/09/02 09:17:31;;;;;;;1.40;0.85;;;20.60;52.50;;;;;;5022989;28;20020;-62
2022/09/02 09:20:02;;;;;;;0.90;0.90;;;20.60;52.50;;;;;;5017623;28;21117;-60
2022/09/02 09:22:36;;;;;;;0.75;0.75;;;20.60;52.40;;;;;;5019322;28;20036;-62
2022/09/02 09:25:10;;;;;;;0.68;0.68;;;20.60;52.40;;;;;;5017508;28;20075;-59
2022/09/02 09:27:35;;;;;;;0.52;0.52;;;20.60;52.20;;;;;;5022504;28;20057;-63
2022/09/02 09:30:02;;;;;;;0.65;0.65;;;20.60;52.20;;;;;;5020314;28;20521;-60
2022/09/02 09:32:39;;;;;;;0.55;0.55;;;20.60;52.00;;;;;;5020361;28;20036;-63
2022/09/02 09:35:07;;;;;;;0.75;0.70;;;20.70;51.80;;;;;;5024308;28;20036;-65
2022/09/02 09:37:47;;;;;;;0.50;0.50;;;20.70;51.80;;;;;;5013423;28;20037;-62
2022/09/02 09:40:27;;;;;;;0.63;0.63;;;20.70;51.50;;;;;;5024062;28;20108;-62
2022/09/02 09:43:12;;;;;;;0.50;0.50;;;20.70;51.30;;;;;;5025229;28;20030;-65
2022/09/02 09:45:50;;;;;;;0.80;0.80;;;20.60;51.10;;;;;;5024894;28;20036;-65
2022/09/02 09:48:15;;;;;;;0.63;0.60;;;20.60;51.00;;;;;;5026762;28;20090;-67
2022/09/02 09:50:42;;;;;;;1.00;0.73;;;20.60;50.90;;;;;;5026649;28;20037;-61
2022/09/02 09:53:25;;;;;;;0.55;0.55;;;20.60;50.70;;;;;;5021009;28;20068;-62
2022/09/02 09:56:21;;;;;;;0.90;0.90;;;20.60;50.60;;;;;;5019580;28;20033;-63
2022/09/02 09:58:49;;;;;;;0.60;0.57;;;20.60;50.50;;;;;;5015675;28;20720;-63
2022/09/02 10:01:34;;;;;;;0.60;0.60;;;20.60;50.50;;;;;;5028151;28;20021;-64
2022/09/02 10:04:27;;;;;;;0.55;0.55;;;20.60;50.20;;;;;;5029168;28;20079;-67
2022/09/02 10:06:52;;;;;;;0.57;0.57;;;20.60;50.10;;;;;;5021441;28;20680;-59
2022/09/02 10:09:21;;;;;;;0.68;0.68;;;20.60;50.30;;;;;;5035554;28;20025;-63
2022/09/02 10:11:54;;;;;;;0.90;0.90;;;20.60;50.30;;;;;;5020361;28;20070;-60
2022/09/02 10:14:20;;;;;;;0.93;0.80;;;20.60;50.20;;;;;;5023979;28;20033;-63
2022/09/02 10:16:57;;;;;;;0.57;0.57;;;20.60;50.20;;;;;;5007979;28;21133;-64
2022/09/02 10:19:33;;;;;;;5.32;0.90;;;20.60;50.10;;;;;;5021464;28;20021;-61
2022/09/02 10:22:20;;;;;;;0.50;0.50;;;20.60;50.10;;;;;;4999221;28;20120;-63
2022/09/02 10:25:10;;;;;;;0.57;0.57;;;20.60;49.90;;;;;;5032577;28;20033;-61
2022/09/02 10:27:51;;;;;;;1.17;0.68;;;20.60;49.70;;;;;;5016030;28;20033;-63
2022/09/02 10:30:24;;;;;;;0.93;0.88;;;20.60;49.70;;;;;;5024163;28;20056;-62
2022/09/02 10:32:56;;;;;;;0.95;0.90;;;20.60;49.70;;;;;;5020692;28;20148;-64
2022/09/02 10:35:37;;;;;;;0.80;0.80;;;20.60;49.40;;;;;;5028924;28;20101;-64
2022/09/02 10:38:28;;;;;;;1.15;0.77;;;20.60;49.30;;;;;;5027155;28;20040;-65
2022/09/02 10:41:20;;;;;;;0.70;0.70;;;20.60;49.30;;;;;;5023326;28;20095;-60
2022/09/02 10:43:55;;;;;;;1.00;0.90;;;20.60;49.20;;;;;;4989786;28;20848;-62
2022/09/02 10:46:23;;;;;;;0.63;0.63;;;20.60;49.30;;;;;;5027206;28;20122;-64
2022/09/02 10:49:19;;;;;;;4.47;0.80;;;20.60;49.20;;;;;;5027996;28;20123;-61
2022/09/02 10:52:05;;;;;;;1.02;0.70;;;20.60;49.30;;;;;;5024923;28;20078;-62
2022/09/02 10:54:40;;;;;;;0.77;0.77;;;20.60;49.20;;;;;;5015345;28;20064;-61
2022/09/02 10:57:19;;;;;;;1.02;0.88;;;20.60;49.10;;;;;;5016711;28;20802;-66
2022/09/02 10:59:53;;;;;;;0.82;0.60;;;20.60;48.80;;;;;;5033058;28;20033;-67
2022/09/02 11:02:40;;;;;;;0.55;0.55;;;20.70;48.90;;;;;;5032680;28;20036;-68
2022/09/02 11:05:15;;;;;;;0.70;0.70;;;20.70;48.90;;;;;;5027245;28;20650;-63
2022/09/02 11:07:49;;;;;;;0.40;0.40;;;20.70;49.00;;;;;;5032627;28;20032;-59
2022/09/02 11:10:31;;;;;;;0.70;0.70;;;20.70;48.90;;;;;;5022103;28;22045;-65
2022/09/02 11:13:20;;;;;;;1.00;0.82;;;20.70;49.00;;;;;;5012728;28;20166;-61
2022/09/02 11:15:56;;;;;;;0.75;0.75;;;20.70;48.50;;;;;;5023148;28;20404;-62
2022/09/02 11:18:44;;;;;;;0.68;0.68;;;20.80;48.70;;;;;;5023680;28;20021;-64
2022/09/02 11:21:26;;;;;;;0.40;0.40;;;20.80;48.50;;;;;;5021981;28;20025;-64
2022/09/02 11:24:05;;;;;;;0.70;0.70;;;20.70;48.50;;;;;;5023535;28;20048;-63
2022/09/02 11:26:40;;;;;;;0.85;0.75;;;20.70;48.60;;;;;;5027769;28;21933;-64
2022/09/02 11:29:26;;;;;;;0.65;0.65;;;20.70;48.50;;;;;;5027925;28;20036;-65
2022/09/02 11:31:52;;;;;;;0.95;0.80;;;20.70;48.60;;;;;;5029914;28;20108;-67
2022/09/02 11:34:33;;;;;;;1.33;0.75;;;20.80;48.60;;;;;;5022646;28;20773;-69
2022/09/02 11:37:05;;;;;;;0.73;0.73;;;20.80;48.30;;;;;;5017719;28;20037;-61
2022/09/02 11:40:14;;;;;;;0.57;0.57;;;20.80;48.40;;;;;;5005618;28;20029;-64
2022/09/02 11:42:50;;;;;;;0.80;0.80;;;20.80;48.30;;;;;;4979093;28;20163;-62
2022/09/02 11:45:40;;;;;;;0.90;0.90;;;20.80;48.60;;;;;;5019323;28;20040;-59
2022/09/02 11:48:28;;;;;;;1.30;1.20;;;20.80;48.40;;;;;;5022785;28;20032;-64
2022/09/02 11:51:31;;;;;;;0.70;0.70;;;20.70;48.40;;;;;;5016604;28;20492;-61
2022/09/02 11:54:02;;;;;;;0.88;0.88;;;20.80;48.40;;;;;;5016767;28;20155;-62
2022/09/02 11:56:40;;;;;;;0.80;0.80;;;20.80;48.60;;;;;;5020941;28;20048;-60
2022/09/02 11:59:22;;;;;;;0.93;0.93;;;20.80;48.50;;;;;;5015984;28;20032;-65
2022/09/02 12:01:55;;;;;;;0.60;0.60;;;20.80;48.30;;;;;;5016554;28;20034;-62
2022/09/02 12:04:25;;;;;;;0.77;0.77;;;20.80;48.30;;;;;;5024184;28;20064;-68
2022/09/02 12:07:06;;;;;;;0.55;0.55;;;20.80;48.20;;;;;;5020796;28;20044;-61
2022/09/02 12:09:49;;;;;;;0.50;0.50;;;20.80;48.10;;;;;;5025808;28;20028;-66
2022/09/02 12:12:58;;;;;;;0.50;0.50;;;20.80;48.10;;;;;;5005379;28;20045;-63
2022/09/02 12:15:23;;;;;;;1.45;0.82;;;20.80;48.00;;;;;;5022834;28;20056;-61
2022/09/02 12:17:49;;;;;;;0.82;0.82;;;20.80;48.10;;;;;;5018919;28;20104;-62
2022/09/02 12:20:43;;;;;;;0.80;0.80;;;20.80;48.00;;;;;;5017529;28;20029;-63
2022/09/02 12:23:29;;;;;;;0.60;0.60;;;20.80;47.80;;;;;;5020532;28;20072;-63
2022/09/02 12:26:05;;;;;;;0.73;0.73;;;20.80;47.80;;;;;;5017995;28;21102;-64
2022/09/02 12:28:32;;;;;;;0.70;0.70;;;20.80;47.90;;;;;;5002103;28;20072;-65
2022/09/02 12:31:01;;;;;;;0.75;0.75;;;20.80;48.00;;;;;;5018328;28;20025;-66
2022/09/02 12:33:31;;;;;;;0.55;0.55;;;20.80;48.00;;;;;;5016945;28;20033;-63
2022/09/02 12:35:58;;;;;;;0.63;0.63;;;20.80;47.90;;;;;;5012660;28;20032;-67
2022/09/02 12:38:27;;;;;;;0.80;0.80;;;20.80;48.00;;;;;;5009187;28;20472;-62
2022/09/02 12:40:59;;;;;;;0.75;0.75;;;20.80;48.00;;;;;;5017099;28;20103;-65
2022/09/02 12:43:57;;;;;;;0.70;0.70;;;20.90;48.00;;;;;;5030173;28;20064;-61
2022/09/02 12:46:35;;;;;;;1.02;1.00;;;20.90;47.80;;;;;;5027022;28;20033;-62
2022/09/02 12:49:22;;;;;;;0.82;0.82;;;20.80;47.90;;;;;;5017719;28;20030;-60
2022/09/02 12:51:56;;;;;;;1.33;0.93;;;20.90;47.80;;;;;;5024342;28;20116;-61
2022/09/02 12:54:49;;;;;;;1.50;0.77;;;20.90;47.80;;;;;;5024864;28;20036;-63
2022/09/02 12:57:18;;;;;;;0.90;0.90;;;20.90;47.70;;;;;;5017185;28;20064;-64
2022/09/02 12:59:46;;;;;;;0.77;0.77;;;20.90;47.90;;;;;;5021989;28;20064;-63
2022/09/02 13:02:41;;;;;;;0.93;0.93;;;20.90;47.80;;;;;;5014819;28;20151;-62
2022/09/02 13:05:16;;;;;;;0.98;0.98;;;20.90;47.60;;;;;;5016300;28;20037;-65
2022/09/02 13:08:07;;;;;;;0.77;0.77;;;20.90;47.70;;;;;;5002496;28;20533;-63